Lindenwood, Illinois
Current Conditions -  °F | °C
As of 5:15 AM on Tuesday 21 Oct 2014 (Local Time) from KRPJ Reporting Station
Clear Clear  
Wind Chill: 35°   Ceiling: Unl
Heat Index: 40°   Visibility: 10mi
Dew Point: 38°   Wind: 6mph
Humidity: 95%   Direction: 350°N
Pressure: 30.09"   Gusts: NA
Location:  42.05°N, 89.03°W
Report Text: KRPJ 211015Z AUTO 35005KT 10SM CLR 04/04 A3009 RMK AO2 T00420035
Loading
Personal Weather Stations






























Interactive Weather Map New forecast layout! Learn more

10-Day Weather Forecast

Advertisements
Track Severe Weather on mobile